Adfines Sun — 9HA2925 — position and weather

sailwx.info

Track history (hours):
 
Tides and Currents Weather Stations Pressure Air Temp Water Temp Dewpoint Dewpoint Depression Visibility Wind Speed Wind Dir Waves Ship Positions

Adfines Sun

Last reported at 2018-May-23 19:28 UTC. Time now 2018-May-24 14:08 UTC.
Position N 29°44' W 095°03'.

Length 162 m; draft 6.5 m.

Type: Tanker. MMSI: 256764000.

Date/timePositionNaut miles runAvg speedWind from/ knotsBaromVisibWave heightAir tempDewpointWater temp
2018-May-23 19:28N 29°44' W 095°03'3 7.0
2018-May-23 19:00N 29°42' W 094°60'5 9.2
2018-May-23 18:30N 29°38' W 094°58'612.1
2018-May-23 18:00N 29°33' W 094°54'814.3
2018-May-23 17:26N 29°25' W 094°50'614.1
2018-May-23 16:59N 29°21' W 094°45'  
2018-May-19 23:53N 29°21' W 094°43'512.1
2018-May-19 23:30N 29°22' W 094°48'612.0
2018-May-19 23:00N 29°28' W 094°51'612.5
2018-May-19 22:30N 29°33' W 094°54'611.8
2018-May-19 22:00N 29°38' W 094°58'5 9.9
2018-May-19 21:30N 29°42' W 095°01'1 0.0
2018-May-17 20:47N 29°43' W 095°01'2 8.4
2018-May-17 20:30N 29°41' W 094°59'511.0
2018-May-17 20:00N 29°36' W 094°57'612.0
2018-May-17 19:30N 29°31' W 094°53'711.6
2018-May-17 18:53N 29°25' W 094°50'511.6
2018-May-17 18:29N 29°21' W 094°47'14 2.9
2018-May-17 13:36N 29°19' W 094°31'0 0.0
2018-May-17 13:15N 29°19' W 094°31'0 0.0
2018-May-17 12:57N 29°19' W 094°31'0 0.0
2018-May-17 09:36N 29°19' W 094°31'0 0.0
2018-May-17 08:45N 29°19' W 094°31'0 0.0
2018-May-17 07:42N 29°19' W 094°31'0 0.0
2018-May-17 07:24N 29°19' W 094°31'0 0.0
2018-May-17 06:48N 29°19' W 094°31'0 0.0
2018-May-17 06:24N 29°19' W 094°31'0 0.0
2018-May-17 06:00N 29°19' W 094°31'0 0.0
2018-May-17 05:30N 29°19' W 094°31'0 0.0
2018-May-17 05:00N 29°19' W 094°31'0 0.0
2018-May-17 04:30N 29°19' W 094°31'0 0.0
2018-May-17 04:00N 29°19' W 094°31'0 0.0
2018-May-17 03:30N 29°19' W 094°31'0 0.0
2018-May-17 03:00N 29°19' W 094°31'0 0.0
2018-May-17 02:30N 29°19' W 094°31'0 0.0
2018-May-17 02:00N 29°19' W 094°31'0 0.0
2018-May-17 01:27N 29°19' W 094°31'0 0.0
2018-May-17 00:57N 29°19' W 094°31'0 0.0
2018-May-17 00:30N 29°19' W 094°31'0 0.0
2018-May-17 00:00N 29°19' W 094°31'0 0.0
2018-May-16 23:30N 29°19' W 094°31'0 0.0
2018-May-16 23:00N 29°19' W 094°31'0 0.0
2018-May-16 22:27N 29°19' W 094°31'0 0.0
2018-May-16 22:00N 29°19' W 094°31'0 0.0
2018-May-16 21:30N 29°19' W 094°31'0 0.0
2018-May-16 20:57N 29°19' W 094°31'0 0.0
2018-May-16 20:27N 29°19' W 094°31'2 3.5
2018-May-16 19:59N 29°17' W 094°30'610.7
2018-May-16 19:24N 29°12' W 094°26'611.0
2018-May-16 18:51N 29°08' W 094°20'511.4
2018-May-16 18:27N 29°06' W 094°16'611.9
2018-May-16 17:58N 29°02' W 094°11'611.9
2018-May-16 17:30N 28°59' W 094°05'611.9
2018-May-16 17:00N 28°56' W 093°60'612.1
2018-May-16 16:30N 28°52' W 093°54'612.1
2018-May-16 16:00N 28°49' W 093°49'612.1
2018-May-16 15:30N 28°45' W 093°43'812.1
2018-May-16 14:49N 28°40' W 093°35'412.0
2018-May-16 14:30N 28°38' W 093°32'612.1
2018-May-16 14:01N 28°35' W 093°26'612.1
2018-May-16 13:30N 28°31' W 093°21'712.0
2018-May-16 12:56N 28°27' W 093°14'512.0
2018-May-16 12:31N 28°24' W 093°10'611.9
2018-May-16 12:01N 28°21' W 093°04'612.0
2018-May-16 11:29N 28°17' W 092°58'612.0
2018-May-16 11:00N 28°13' W 092°53'611.9
2018-May-16 10:30N 28°09' W 092°49'612.1
2018-May-16 10:00N 28°04' W 092°45'1312.1
2018-May-16 08:58N 27°54' W 092°36'712.0
2018-May-16 08:24N 27°50' W 092°30'512.1
2018-May-16 07:57N 27°48' W 092°24'  
Track history (hours):
 
Tides and Currents Weather Stations Pressure Air Temp Water Temp Dewpoint Dewpoint Depression Visibility Wind Speed Wind Dir Waves Ship Positions

Adfines Sun

Last reported at 2018-May-23 19:28 UTC. Time now 2018-May-24 14:08 UTC.
Position N 29°44' W 095°03'.

Length 162 m; draft 6.5 m.

Type: Tanker. MMSI: 256764000.

Date/timePositionNaut miles runAvg speedWind from/ knotsBaromVisibWave heightAir tempDewpointWater temp
2018-May-23 19:28N 29°44' W 095°03'3 7.0
2018-May-23 19:00N 29°42' W 094°60'5 9.2
2018-May-23 18:30N 29°38' W 094°58'612.1
2018-May-23 18:00N 29°33' W 094°54'814.3
2018-May-23 17:26N 29°25' W 094°50'614.1
2018-May-23 16:59N 29°21' W 094°45'  
2018-May-19 23:53N 29°21' W 094°43'512.1
2018-May-19 23:30N 29°22' W 094°48'612.0
2018-May-19 23:00N 29°28' W 094°51'612.5
2018-May-19 22:30N 29°33' W 094°54'611.8
2018-May-19 22:00N 29°38' W 094°58'5 9.9
2018-May-19 21:30N 29°42' W 095°01'1 0.0
2018-May-17 20:47N 29°43' W 095°01'2 8.4
2018-May-17 20:30N 29°41' W 094°59'511.0
2018-May-17 20:00N 29°36' W 094°57'612.0
2018-May-17 19:30N 29°31' W 094°53'711.6
2018-May-17 18:53N 29°25' W 094°50'511.6
2018-May-17 18:29N 29°21' W 094°47'14 2.9
2018-May-17 13:36N 29°19' W 094°31'0 0.0
2018-May-17 13:15N 29°19' W 094°31'0 0.0
2018-May-17 12:57N 29°19' W 094°31'0 0.0
2018-May-17 09:36N 29°19' W 094°31'0 0.0
2018-May-17 08:45N 29°19' W 094°31'0 0.0
2018-May-17 07:42N 29°19' W 094°31'0 0.0
2018-May-17 07:24N 29°19' W 094°31'0 0.0
2018-May-17 06:48N 29°19' W 094°31'0 0.0
2018-May-17 06:24N 29°19' W 094°31'0 0.0
2018-May-17 06:00N 29°19' W 094°31'0 0.0
2018-May-17 05:30N 29°19' W 094°31'0 0.0
2018-May-17 05:00N 29°19' W 094°31'0 0.0
2018-May-17 04:30N 29°19' W 094°31'0 0.0
2018-May-17 04:00N 29°19' W 094°31'0 0.0
2018-May-17 03:30N 29°19' W 094°31'0 0.0
2018-May-17 03:00N 29°19' W 094°31'0 0.0
2018-May-17 02:30N 29°19' W 094°31'0 0.0
2018-May-17 02:00N 29°19' W 094°31'0 0.0
2018-May-17 01:27N 29°19' W 094°31'0 0.0
2018-May-17 00:57N 29°19' W 094°31'0 0.0
2018-May-17 00:30N 29°19' W 094°31'0 0.0
2018-May-17 00:00N 29°19' W 094°31'0 0.0
2018-May-16 23:30N 29°19' W 094°31'0 0.0
2018-May-16 23:00N 29°19' W 094°31'0 0.0
2018-May-16 22:27N 29°19' W 094°31'0 0.0
2018-May-16 22:00N 29°19' W 094°31'0 0.0
2018-May-16 21:30N 29°19' W 094°31'0 0.0
2018-May-16 20:57N 29°19' W 094°31'0 0.0
2018-May-16 20:27N 29°19' W 094°31'2 3.5
2018-May-16 19:59N 29°17' W 094°30'610.7
2018-May-16 19:24N 29°12' W 094°26'611.0
2018-May-16 18:51N 29°08' W 094°20'511.4
2018-May-16 18:27N 29°06' W 094°16'611.9
2018-May-16 17:58N 29°02' W 094°11'611.9
2018-May-16 17:30N 28°59' W 094°05'611.9
2018-May-16 17:00N 28°56' W 093°60'612.1
2018-May-16 16:30N 28°52' W 093°54'612.1
2018-May-16 16:00N 28°49' W 093°49'612.1
2018-May-16 15:30N 28°45' W 093°43'812.1
2018-May-16 14:49N 28°40' W 093°35'412.0
2018-May-16 14:30N 28°38' W 093°32'612.1
2018-May-16 14:01N 28°35' W 093°26'612.1
2018-May-16 13:30N 28°31' W 093°21'712.0
2018-May-16 12:56N 28°27' W 093°14'512.0
2018-May-16 12:31N 28°24' W 093°10'611.9
2018-May-16 12:01N 28°21' W 093°04'612.0
2018-May-16 11:29N 28°17' W 092°58'612.0
2018-May-16 11:00N 28°13' W 092°53'611.9
2018-May-16 10:30N 28°09' W 092°49'612.1
2018-May-16 10:00N 28°04' W 092°45'1312.1
2018-May-16 08:58N 27°54' W 092°36'712.0
2018-May-16 08:24N 27°50' W 092°30'512.1
2018-May-16 07:57N 27°48' W 092°24'  

Dump ship's entire track history